Abakan, Russia

8:15 PM KRAT on October 01, 2014 (GMT +0800)
Abakan | Change Station
CLOSE
Current Station
Airport
Location: Abakan,
Elevation: 804 ft
Nearby Weather Stations

Elev 804 ft 53.74 °N, 91.39 °E | Updated 45 minutes ago

Mostly Cloudy
Mostly Cloudy
54 °F
Feels Like 54 °F
N
0
Wind Variable Wind from North

Today
High -- | Low -- °F
--% Chance of Precip.
Yesterday
High -- | Low -- °F
Precip. -- in
7:55 AM 7:32 PM
Waxing Crescent, 47% visible
Pressure 29.83 in
Visibility 5.0 miles
Clouds Mostly Cloudy 13000 ft
Mostly Cloudy 20000 ft
Dew Point 45 °F
Humidity 72%
Rainfall 0.00 in
Snow Depth Not available.
UV 0 out of 12
Pollen Not available.
Air Quality Not available.
Flu Activity Not available.
METAR UNAA 011130Z 00000MPS 8000 BKN130 BKN200 12/07 Q1010 NOSIG RMK QFE735 20090065

More Conditions Fewer Conditions

Pressure 29.83 in
Visibility 5.0 miles
Clouds Mostly Cloudy 13000 ft
Mostly Cloudy 20000 ft
Dew Point 45 °F
Humidity 72%
Rainfall 0.00 in
Snow Depth Not available.
UV 0 out of 12
Pollen Not available.
Air Quality Not available.
Flu Activity Not available.
METAR UNAA 011130Z 00000MPS 8000 BKN130 BKN200 12/07 Q1010 NOSIG RMK QFE735 20090065

More Conditions Fewer Conditions

10-Day Weather Forecast

Almanac

Astronomy

Oct. 01, 2014 Rise Set
Actual Time 7:55 AM KRAT 7:32 PM KRAT
Civil Twilight 7:20 AM KRAT 8:06 PM KRAT
Nautical Twilight 6:39 AM KRAT 8:47 PM KRAT
Astronomical Twilight 5:57 AM KRAT 9:29 PM KRAT
Moon 3:09 PM KRAT 11:53 PM KRAT
Length of Visible Light 12h 46m
Length of Day
11h 36m
Tomorrow will be 4m 15s shorter.
Waxing Crescent, 47% of the Moon is Illuminated
Today
Waxing Crescent
Oct 1
First Quarter
Oct 8
Full
Oct 15
Last Quarter
Oct 23
New

Yesterday's Extremes

Country Highs Country Lows

Community

WunderPhotos

Upload Photos

1,757,914 photos uploaded!

Nearby

Snow Depth

Not available.

Earthquake Activity

City Distance Mag. Time & Date
No recent earthquake activity has been reported nearby.
Minimum magnitude displayed is 2.5.

Coastal Water Temperatures

Place Temperature
No Stations Reporting

Nearby Weather Stations